Time;durP1;ratioP1;P1;durP2;ratioP2;P2;SDS_P1;SDS_P2;PMS_P1;PMS_P2;Temp;Humidity;BMP_temperature;BMP_pressure;BME280_temperature;BME280_humidity;BME280_pressure;Samples;Min_cycle;Max_cycle;Signal;HPM_P1;HPM_P2
2022/07/03 00:00:04;;;;;;;1999.90;999.90;;;16.80;99.90;;;;;;5073571;28;20586;-62
2022/07/03 00:02:33;;;;;;;1999.90;999.90;;;16.80;99.90;;;;;;5075628;28;20202;-61
2022/07/03 00:05:00;;;;;;;1999.90;999.90;;;16.90;99.90;;;;;;5076569;28;20217;-61
2022/07/03 00:07:27;;;;;;;1999.90;999.90;;;16.80;99.90;;;;;;5076598;28;20260;-62
2022/07/03 00:09:54;;;;;;;1999.90;999.90;;;16.80;99.90;;;;;;5076749;28;20197;-62
2022/07/03 00:12:21;;;;;;;1999.90;999.90;;;16.80;99.90;;;;;;5076140;28;20550;-62
2022/07/03 00:14:50;;;;;;;1999.90;999.90;;;16.70;99.90;;;;;;5076230;28;20185;-62
2022/07/03 00:17:17;;;;;;;1999.90;999.90;;;16.80;99.90;;;;;;5076091;28;20209;-62
2022/07/03 00:19:46;;;;;;;1999.90;999.90;;;16.80;99.90;;;;;;5075963;28;20661;-62
2022/07/03 00:22:14;;;;;;;1999.90;999.90;;;16.80;99.90;;;;;;5075959;28;20197;-62
2022/07/03 00:24:44;;;;;;;1999.90;999.90;;;16.80;99.90;;;;;;5075761;28;20206;-62
2022/07/03 00:27:12;;;;;;;1999.90;999.90;;;16.80;99.90;;;;;;5075831;28;20193;-62
2022/07/03 00:29:42;;;;;;;1999.90;999.90;;;16.80;99.90;;;;;;5075910;28;20255;-62
2022/07/03 00:32:10;;;;;;;1999.90;999.90;;;16.80;99.90;;;;;;5075568;28;20201;-62
2022/07/03 00:34:38;;;;;;;1999.90;999.90;;;16.70;99.90;;;;;;5075680;28;20207;-62
2022/07/03 00:37:09;;;;;;;1999.90;999.90;;;16.60;99.90;;;;;;5075594;28;20193;-62
2022/07/03 00:39:38;;;;;;;1999.90;999.90;;;16.70;99.90;;;;;;5075932;28;20187;-62
2022/07/03 00:42:07;;;;;;;1999.90;999.90;;;16.70;99.90;;;;;;5075682;28;20220;-62
2022/07/03 00:44:43;;;;;;;1999.90;999.90;;;16.70;99.90;;;;;;5075692;28;20203;-62
2022/07/03 00:47:11;;;;;;;1999.90;999.90;;;16.80;99.90;;;;;;5075308;28;20651;-62
2022/07/03 00:49:39;;;;;;;1999.90;999.90;;;16.80;99.90;;;;;;5075622;28;20195;-62
2022/07/03 00:52:10;;;;;;;1999.90;999.90;;;16.80;99.90;;;;;;5075393;28;20199;-62
2022/07/03 00:54:42;;;;;;;1999.90;999.90;;;16.70;99.90;;;;;;5075357;28;20192;-62
2022/07/03 00:57:15;;;;;;;1999.90;999.90;;;16.50;99.90;;;;;;5075247;28;20174;-62
2022/07/03 00:59:43;;;;;;;1999.90;999.90;;;16.20;99.90;;;;;;5075403;28;20232;-62
2022/07/03 01:02:16;;;;;;;1999.90;999.90;;;16.00;99.90;;;;;;5074884;28;20201;-61
2022/07/03 01:04:52;;;;;;;1999.90;999.90;;;15.90;99.90;;;;;;5075508;28;20195;-61
2022/07/03 01:07:38;;;;;;;1999.90;999.90;;;15.80;99.90;;;;;;5075123;28;20173;-62
2022/07/03 01:10:09;;;;;;;1999.90;999.90;;;15.80;99.90;;;;;;5074801;28;20179;-62
2022/07/03 01:12:50;;;;;;;1999.90;999.90;;;15.60;99.90;;;;;;5074791;28;20602;-62
2022/07/03 01:15:30;;;;;;;1999.90;999.90;;;15.40;99.90;;;;;;5075004;28;20648;-62
2022/07/03 01:18:18;;;;;;;1999.90;999.90;;;15.40;99.90;;;;;;5075156;28;20187;-62
2022/07/03 01:20:53;;;;;;;1999.90;999.90;;;15.50;99.90;;;;;;5075112;28;20186;-62
2022/07/03 01:23:33;;;;;;;1999.90;999.90;;;15.60;99.90;;;;;;5074840;28;20669;-62
2022/07/03 01:26:05;;;;;;;1999.90;999.90;;;15.60;99.90;;;;;;5074660;28;20230;-62
2022/07/03 01:28:36;;;;;;;1999.90;999.90;;;15.80;99.90;;;;;;5074698;28;20184;-62
2022/07/03 01:31:03;;;;;;;1999.90;999.90;;;15.90;99.90;;;;;;5074921;28;20225;-62
2022/07/03 01:33:33;;;;;;;1999.90;999.90;;;15.90;99.90;;;;;;5074862;28;20244;-62
2022/07/03 01:36:07;;;;;;;1999.90;999.90;;;16.00;99.90;;;;;;5074593;28;20191;-62
2022/07/03 01:38:36;;;;;;;1999.90;999.90;;;16.00;99.90;;;;;;5074806;28;20185;-62
2022/07/03 01:41:05;;;;;;;1999.90;999.90;;;16.00;99.90;;;;;;5074458;28;20195;-62
2022/07/03 01:43:34;;;;;;;1999.90;999.90;;;16.10;99.90;;;;;;5074741;28;20213;-63
2022/07/03 01:46:04;;;;;;;1999.90;999.90;;;16.10;99.90;;;;;;5074584;28;20216;-62
2022/07/03 01:48:33;;;;;;;1999.90;999.90;;;16.20;99.90;;;;;;5074164;28;20197;-62
2022/07/03 01:51:01;;;;;;;1999.90;999.90;;;16.30;99.90;;;;;;5074489;28;20205;-62
2022/07/03 01:53:30;;;;;;;1999.90;999.90;;;16.30;99.90;;;;;;5074433;28;20209;-62
2022/07/03 01:55:58;;;;;;;1999.90;999.90;;;16.30;99.90;;;;;;5074488;28;20191;-62
2022/07/03 01:58:27;;;;;;;1999.90;999.90;;;16.20;99.90;;;;;;5074111;28;20195;-62
2022/07/03 02:01:02;;;;;;;1999.90;999.90;;;16.20;99.90;;;;;;5074024;28;20688;-61
2022/07/03 02:03:32;;;;;;;1999.90;999.90;;;16.10;99.90;;;;;;5074015;28;20182;-61
2022/07/03 02:06:06;;;;;;;1999.90;999.90;;;16.10;99.90;;;;;;5073901;28;20692;-61
2022/07/03 02:08:48;;;;;;;1999.90;999.90;;;16.00;99.90;;;;;;5074189;28;20184;-62
2022/07/03 02:11:17;;;;;;;1999.90;999.90;;;16.00;99.90;;;;;;5074193;28;20191;-61
2022/07/03 02:14:09;;;;;;;1999.90;999.90;;;16.00;99.90;;;;;;5073796;28;20245;-62
2022/07/03 02:16:47;;;;;;;1999.90;999.90;;;16.00;99.90;;;;;;5073763;28;20173;-62
2022/07/03 02:19:17;;;;;;;1999.90;999.90;;;16.00;99.90;;;;;;5073699;28;20184;-62
2022/07/03 02:21:49;;;;;;;1999.90;999.90;;;16.10;99.90;;;;;;5073486;28;20197;-62
2022/07/03 02:24:19;;;;;;;1999.90;999.90;;;16.30;99.90;;;;;;5073532;28;20180;-62
2022/07/03 02:26:54;;;;;;;1999.90;999.90;;;16.40;99.90;;;;;;5073774;28;20214;-62
2022/07/03 02:29:33;;;;;;;1999.90;999.90;;;16.30;99.90;;;;;;5073497;28;20179;-62
2022/07/03 02:32:03;;;;;;;1999.90;999.90;;;16.20;99.90;;;;;;5073739;28;20177;-62
2022/07/03 02:34:33;;;;;;;1999.90;999.90;;;16.10;99.90;;;;;;5073662;28;20189;-62
2022/07/03 02:37:10;;;;;;;1999.90;999.90;;;16.00;99.90;;;;;;5073305;28;20661;-62
2022/07/03 02:39:45;;;;;;;1999.90;999.90;;;15.90;99.90;;;;;;5073254;28;20236;-62
2022/07/03 02:42:23;;;;;;;1999.90;999.90;;;15.80;99.90;;;;;;5073303;28;20190;-62
2022/07/03 02:44:54;;;;;;;1999.90;999.90;;;15.90;99.90;;;;;;5073491;28;20198;-62
2022/07/03 02:47:31;;;;;;;1999.90;999.90;;;15.90;99.90;;;;;;5072933;28;20199;-62
2022/07/03 02:50:04;;;;;;;1999.90;999.90;;;15.90;99.90;;;;;;5073481;28;20193;-62
2022/07/03 02:52:45;;;;;;;1999.90;999.90;;;15.90;99.90;;;;;;5072957;28;20570;-62
2022/07/03 02:55:31;;;;;;;1999.90;999.90;;;15.90;99.90;;;;;;5072993;28;20194;-62
2022/07/03 02:58:06;;;;;;;1999.90;999.90;;;15.90;99.90;;;;;;5072982;28;20648;-62
2022/07/03 03:00:38;;;;;;;1999.90;999.90;;;15.90;99.90;;;;;;5072954;28;20644;-62
2022/07/03 03:03:05;;;;;;;1999.90;999.90;;;15.80;99.90;;;;;;5073211;28;20210;-61
2022/07/03 03:05:41;;;;;;;1999.90;999.90;;;15.80;99.90;;;;;;5073086;28;20199;-61
2022/07/03 03:08:21;;;;;;;1999.90;999.90;;;15.70;99.90;;;;;;5073194;28;20205;-61
2022/07/03 03:10:49;;;;;;;1999.90;999.90;;;15.70;99.90;;;;;;5073172;28;20191;-62
2022/07/03 03:13:19;;;;;;;1999.90;999.90;;;15.70;99.90;;;;;;5072712;28;20230;-61
2022/07/03 03:15:58;;;;;;;1999.90;999.90;;;15.70;99.90;;;;;;5072617;28;20252;-62
2022/07/03 03:18:29;;;;;;;1999.90;999.90;;;15.60;99.90;;;;;;5072821;28;20186;-62
2022/07/03 03:20:59;;;;;;;1999.90;999.90;;;15.60;99.90;;;;;;5072598;28;20184;-61
2022/07/03 03:23:38;;;;;;;1999.90;999.90;;;15.50;99.90;;;;;;5072553;28;20660;-63
2022/07/03 03:26:06;;;;;;;1999.90;999.90;;;15.50;99.90;;;;;;5072698;28;20205;-62
2022/07/03 03:28:34;;;;;;;1999.90;999.90;;;15.40;99.90;;;;;;5072627;28;20213;-61
2022/07/03 03:31:06;;;;;;;1999.90;999.90;;;15.50;99.90;;;;;;5072994;28;20205;-62
2022/07/03 03:33:36;;;;;;;1999.90;999.90;;;15.40;99.90;;;;;;5072335;28;20664;-62
2022/07/03 03:36:06;;;;;;;1999.90;999.90;;;15.40;99.90;;;;;;5072733;28;20203;-62
2022/07/03 03:38:34;;;;;;;1999.90;999.90;;;15.40;99.90;;;;;;5072684;28;20211;-62
2022/07/03 03:41:02;;;;;;;1999.90;999.90;;;15.40;99.90;;;;;;5072616;28;20199;-62
2022/07/03 03:43:29;;;;;;;1999.90;999.90;;;15.40;99.90;;;;;;5072246;28;20690;-62
2022/07/03 03:45:56;;;;;;;1999.90;999.90;;;15.30;99.90;;;;;;5072468;28;20202;-62
2022/07/03 03:48:25;;;;;;;1999.90;999.90;;;15.30;99.90;;;;;;5072190;28;20680;-62
2022/07/03 03:50:52;;;;;;;1999.90;999.90;;;15.30;99.90;;;;;;5072145;28;20684;-63
2022/07/03 03:53:20;;;;;;;1999.90;999.90;;;15.30;99.90;;;;;;5072214;28;20206;-62
2022/07/03 03:56:01;;;;;;;1999.90;999.90;;;15.30;99.90;;;;;;5072206;28;20668;-62
2022/07/03 03:58:29;;;;;;;1999.90;999.90;;;15.30;99.90;;;;;;5072546;28;20195;-61
2022/07/03 04:00:57;;;;;;;1999.90;999.90;;;15.30;99.90;;;;;;5072137;28;20201;-61
2022/07/03 04:03:26;;;;;;;1999.90;999.90;;;15.20;99.90;;;;;;5072137;28;20198;-61
2022/07/03 04:05:53;;;;;;;1999.90;999.90;;;15.20;99.90;;;;;;5072556;28;20256;-61
2022/07/03 04:08:21;;;;;;;1999.90;999.90;;;15.20;99.90;;;;;;5072079;28;20205;-62
2022/07/03 04:10:48;;;;;;;1999.90;999.90;;;15.10;99.90;;;;;;5072068;28;20198;-62
2022/07/03 04:13:16;;;;;;;1999.90;999.90;;;15.00;99.90;;;;;;5071966;28;20233;-62
2022/07/03 04:15:43;;;;;;;1999.90;999.90;;;14.80;99.90;;;;;;5072257;28;20209;-62
2022/07/03 04:18:10;;;;;;;1999.90;999.90;;;14.70;99.90;;;;;;5072136;28;20201;-61
2022/07/03 04:20:39;;;;;;;1999.90;999.90;;;14.70;99.90;;;;;;5072225;28;20199;-61
2022/07/03 04:23:06;;;;;;;1999.90;999.90;;;14.70;99.90;;;;;;5072293;28;20194;-61
2022/07/03 04:25:33;;;;;;;1999.90;999.90;;;14.70;99.90;;;;;;5071902;28;20212;-62
2022/07/03 04:28:00;;;;;;;1999.90;999.90;;;14.70;99.90;;;;;;5072174;28;20220;-62
2022/07/03 04:30:27;;;;;;;1999.90;999.90;;;14.60;99.90;;;;;;5071940;28;20566;-62
2022/07/03 04:32:55;;;;;;;1999.90;999.90;;;14.70;99.90;;;;;;5072150;28;20195;-61
2022/07/03 04:35:22;;;;;;;1999.90;999.90;;;14.70;99.90;;;;;;5072160;28;20199;-62
2022/07/03 04:37:50;;;;;;;1999.90;999.90;;;14.80;99.90;;;;;;5072063;28;20199;-62
2022/07/03 04:40:17;;;;;;;1999.90;999.90;;;14.90;99.90;;;;;;5072082;28;20191;-62
2022/07/03 04:42:44;;;;;;;1999.90;999.90;;;15.00;99.90;;;;;;5072006;28;20202;-62
2022/07/03 04:45:12;;;;;;;1999.90;999.90;;;15.10;99.90;;;;;;5071675;28;20553;-62
2022/07/03 04:47:39;;;;;;;1999.90;999.90;;;15.20;99.90;;;;;;5075579;28;20207;-62
2022/07/03 04:50:07;;;;;;;1999.90;999.90;;;15.50;99.90;;;;;;5075436;28;20208;-62
2022/07/03 04:52:34;;;;;;;1999.90;999.90;;;15.70;99.90;;;;;;5075597;28;20203;-62
2022/07/03 04:55:03;;;;;;;1999.90;999.90;;;15.80;99.90;;;;;;5075702;28;20199;-67
2022/07/03 04:57:30;;;;;;;1999.90;999.90;;;16.00;99.90;;;;;;5075564;28;20203;-62
2022/07/03 04:59:57;;;;;;;1999.90;999.90;;;16.10;99.90;;;;;;5075264;28;20195;-62
2022/07/03 05:02:24;;;;;;;1999.90;999.90;;;16.20;99.90;;;;;;5075205;28;20195;-61
2022/07/03 05:04:51;;;;;;;1999.90;999.90;;;16.30;99.90;;;;;;5075190;28;20383;-61
2022/07/03 05:07:18;;;;;;;1999.90;999.90;;;16.40;99.90;;;;;;5075398;28;20219;-62
2022/07/03 05:09:45;;;;;;;1999.90;999.90;;;16.50;99.90;;;;;;5075123;28;20194;-62
2022/07/03 05:12:13;;;;;;;1999.90;999.90;;;16.60;99.90;;;;;;5075223;28;20203;-62
2022/07/03 05:14:41;;;;;;;1999.90;999.90;;;16.90;99.90;;;;;;5074887;28;20229;-62
2022/07/03 05:17:08;;;;;;;1999.90;999.90;;;17.30;99.90;;;;;;5075073;28;20201;-62
2022/07/03 05:19:35;;;;;;;1999.90;999.90;;;18.10;99.90;;;;;;5075205;28;20244;-62
2022/07/03 05:22:02;;;;;;;1999.90;999.90;;;18.30;99.90;;;;;;5075028;28;20199;-62
2022/07/03 05:24:29;;;;;;;1999.90;999.90;;;18.40;99.90;;;;;;5074753;28;20541;-62
2022/07/03 05:26:56;;;;;;;1999.90;999.90;;;18.90;99.90;;;;;;5074921;28;20213;-62
2022/07/03 05:29:24;;;;;;;1999.90;999.90;;;19.20;99.90;;;;;;5074645;28;20191;-62
2022/07/03 05:31:51;;;;;;;1999.90;999.90;;;19.20;99.90;;;;;;5074418;28;20202;-62
2022/07/03 05:34:18;;;;;;;1999.90;999.90;;;19.40;99.90;;;;;;5074672;28;20203;-62
2022/07/03 05:36:45;;;;;;;1999.90;999.90;;;20.00;99.90;;;;;;5074795;28;20195;-63
2022/07/03 05:41:57;;;;;;;1999.90;999.90;;;20.10;99.90;;;;;;5074443;28;20618;-63
2022/07/03 05:44:25;;;;;;;1999.90;999.90;;;20.20;99.90;;;;;;5074643;28;20289;-63
2022/07/03 05:46:53;;;;;;;1999.90;999.90;;;19.80;99.90;;;;;;5074402;28;20206;-63
2022/07/03 05:49:20;;;;;;;1999.90;999.90;;;19.90;99.90;;;;;;5074592;28;20207;-62
2022/07/03 05:51:47;;;;;;;1999.90;999.90;;;20.00;99.90;;;;;;5074392;28;20195;-63
2022/07/03 05:54:14;;;;;;;1999.90;999.90;;;20.70;99.90;;;;;;5074208;28;20758;-64
2022/07/03 05:56:41;;;;;;;1999.90;999.90;;;20.30;99.90;;;;;;5074094;28;20210;-64
2022/07/03 05:59:08;;;;;;;1999.90;999.90;;;20.60;99.90;;;;;;5074411;28;20199;-63
2022/07/03 06:01:36;;;;;;;1999.90;999.90;;;20.30;99.90;;;;;;5074326;28;20201;-63
2022/07/03 06:04:03;;;;;;;1999.90;999.90;;;20.30;99.90;;;;;;5074299;28;20211;-62
2022/07/03 06:06:30;;;;;;;1999.90;999.90;;;19.80;99.90;;;;;;5073905;28;20198;-63
2022/07/03 06:08:57;;;;;;;1999.90;999.90;;;19.70;99.90;;;;;;5074137;28;20221;-63
2022/07/03 06:11:24;;;;;;;1999.90;999.90;;;19.10;99.90;;;;;;5073979;28;20225;-66
2022/07/03 06:13:51;;;;;;;1999.90;999.90;;;18.70;99.90;;;;;;5073480;28;20235;-64
2022/07/03 06:16:19;;;;;;;1999.90;999.90;;;18.90;99.90;;;;;;5073951;28;20191;-63
2022/07/03 06:18:47;;;;;;;1999.90;999.90;;;19.10;99.90;;;;;;5073809;28;20190;-64
2022/07/03 06:21:14;;;;;;;1999.90;999.90;;;19.60;99.90;;;;;;5073531;28;20203;-64
2022/07/03 06:23:42;;;;;;;1999.90;999.90;;;19.50;99.90;;;;;;5073565;28;20198;-65
2022/07/03 06:26:09;;;;;;;1999.90;999.90;;;19.60;99.90;;;;;;5073851;28;20197;-64
2022/07/03 06:28:36;;;;;;;1999.90;999.90;;;20.10;99.90;;;;;;5073699;28;20213;-64
2022/07/03 06:31:03;;;;;;;1999.90;999.90;;;19.70;99.90;;;;;;5073486;28;20244;-64
2022/07/03 06:33:30;;;;;;;1999.90;999.90;;;19.80;99.90;;;;;;5073137;28;20209;-64
2022/07/03 06:35:58;;;;;;;1999.90;999.90;;;20.20;99.90;;;;;;5073444;28;20201;-64
2022/07/03 06:38:25;;;;;;;1999.90;999.90;;;20.60;1.00;;;;;;5073358;28;20203;-65
2022/07/03 06:40:52;;;;;;;1999.90;999.90;;;21.10;99.90;;;;;;5073531;28;20207;-66
2022/07/03 06:43:19;;;;;;;1999.90;999.90;;;20.70;99.90;;;;;;5073157;28;20203;-65
2022/07/03 06:45:47;;;;;;;1999.90;999.90;;;20.70;33.30;;;;;;5073112;28;20562;-64
2022/07/03 06:48:14;;;;;;;1999.90;999.90;;;20.90;99.90;;;;;;5072927;28;20210;-64
2022/07/03 06:50:41;;;;;;;1999.90;999.90;;;20.80;99.90;;;;;;5072960;28;20198;-65
2022/07/03 06:53:09;;;;;;;1999.90;999.90;;;20.90;1.00;;;;;;5073291;28;20240;-64
2022/07/03 06:55:36;;;;;;;1999.90;999.90;;;21.60;1.00;;;;;;5072950;28;20725;-65
2022/07/03 06:58:03;;;;;;;1999.90;999.90;;;22.00;99.90;;;;;;5073180;28;20202;-65
2022/07/03 07:00:31;;;;;;;1999.90;999.90;;;22.10;1.00;;;;;;5073134;28;20199;-65
2022/07/03 07:02:58;;;;;;;1999.90;999.90;;;22.60;99.90;;;;;;5072814;28;20564;-63
2022/07/03 07:05:25;;;;;;;1999.90;999.90;;;22.30;94.00;;;;;;5073059;28;20203;-63
2022/07/03 07:07:52;;;;;;;1999.90;999.90;;;22.00;23.80;;;;;;5072877;28;20214;-63
2022/07/03 07:10:20;;;;;;;1999.90;999.90;;;22.40;99.90;;;;;;5072686;28;20199;-64
2022/07/03 07:12:49;;;;;;;1999.90;999.90;;;22.00;1.00;;;;;;5072677;28;20280;-66
2022/07/03 07:15:16;;;;;;;1999.90;999.90;;;22.10;99.90;;;;;;5072911;28;20186;-65
2022/07/03 07:17:43;;;;;;;1999.90;999.90;;;22.30;1.00;;;;;;5072783;28;20191;-67
2022/07/03 07:20:10;;;;;;;1999.90;999.90;;;22.30;1.00;;;;;;5072848;28;20213;-66
2022/07/03 07:22:37;;;;;;;1999.90;999.90;;;22.90;99.90;;;;;;5072706;28;20202;-66
2022/07/03 07:25:05;;;;;;;1999.90;999.90;;;23.70;99.90;;;;;;5072496;28;20740;-64
2022/07/03 07:27:34;;;;;;;1999.90;999.90;;;23.20;1.00;;;;;;5072689;28;20215;-62
2022/07/03 07:30:01;;;;;;;1999.90;999.90;;;23.10;1.00;;;;;;5072395;28;20203;-62
2022/07/03 07:32:28;;;;;;;1999.90;999.90;;;23.00;1.00;;;;;;5072665;28;20195;-62
2022/07/03 07:34:55;;;;;;;1999.90;999.90;;;22.80;1.00;;;;;;5072677;28;20206;-61
2022/07/03 07:37:22;;;;;;;1999.90;999.90;;;22.80;1.00;;;;;;5072306;28;20577;-64
2022/07/03 07:39:49;;;;;;;1999.90;999.90;;;23.60;99.90;;;;;;5072344;28;20203;-64
2022/07/03 07:42:16;;;;;;;1999.90;999.90;;;24.00;65.40;;;;;;5072283;28;20256;-65
2022/07/03 07:44:45;;;;;;;1999.90;999.90;;;23.20;99.90;;;;;;5072215;28;20217;-64
2022/07/03 07:47:12;;;;;;;1999.90;999.90;;;22.60;99.90;;;;;;5072086;28;20686;-64
2022/07/03 07:49:39;;;;;;;1999.90;999.90;;;22.70;94.90;;;;;;5072497;28;20199;-64
2022/07/03 07:52:06;;;;;;;1999.90;999.90;;;22.80;99.90;;;;;;5072157;28;20199;-65
2022/07/03 07:54:34;;;;;;;1999.90;999.90;;;22.90;99.90;;;;;;5072440;28;20199;-65
2022/07/03 07:57:01;;;;;;;1999.90;999.90;;;23.00;99.90;;;;;;5072148;28;20853;-65
2022/07/03 07:59:28;;;;;;;1999.90;999.90;;;23.70;1.00;;;;;;5072406;28;20191;-64
2022/07/03 08:07:21;;;;;;;1999.90;999.90;;;23.50;1.00;;;;;;5049114;28;20199;-63
2022/07/03 08:09:48;;;;;;;1999.90;999.90;;;23.50;1.00;;;;;;5072034;28;20683;-62
2022/07/03 08:12:16;;;;;;;1999.90;999.90;;;23.80;1.00;;;;;;5072258;28;20195;-63
2022/07/03 08:14:43;;;;;;;1999.90;999.90;;;24.40;99.90;;;;;;5071828;28;20235;-64
2022/07/03 08:17:11;;;;;;;1999.90;999.90;;;25.00;1.00;;;;;;5071920;28;20203;-64
2022/07/03 08:19:38;;;;;;;1999.90;999.90;;;25.00;1.00;;;;;;5072182;28;20194;-64
2022/07/03 08:22:05;;;;;;;1999.90;999.90;;;25.10;66.30;;;;;;5075275;28;20213;-63
2022/07/03 08:24:32;;;;;;;1999.90;999.90;;;25.20;99.90;;;;;;5075852;28;20567;-64
2022/07/03 08:26:59;;;;;;;1999.90;999.90;;;25.20;1.00;;;;;;5076172;28;20195;-65
2022/07/03 08:29:27;;;;;;;1999.90;999.90;;;25.40;1.00;;;;;;5075621;28;20221;-64
2022/07/03 08:31:54;;;;;;;1999.90;999.90;;;25.80;1.00;;;;;;5076028;28;20203;-67
2022/07/03 08:34:23;;;;;;;1999.90;999.90;;;25.60;1.00;;;;;;5075926;28;20199;-67
2022/07/03 08:36:50;;;;;;;1999.90;999.90;;;26.60;99.90;;;;;;5075591;28;20686;-66
2022/07/03 08:39:17;;;;;;;1999.90;999.90;;;25.90;1.00;;;;;;5075608;28;20190;-64
2022/07/03 08:41:45;;;;;;;1999.90;999.90;;;25.30;1.00;;;;;;5075538;28;20558;-66
2022/07/03 08:44:13;;;;;;;1999.90;999.90;;;25.30;1.00;;;;;;5075499;28;20275;-66
2022/07/03 08:46:41;;;;;;;1999.90;999.90;;;25.80;1.00;;;;;;5075636;28;20198;-68
2022/07/03 08:49:10;;;;;;;1999.90;999.90;;;25.70;1.00;;;;;;5075351;28;20207;-68
2022/07/03 08:51:41;;;;;;;1999.90;999.90;;;26.00;1.00;;;;;;5075565;28;20319;-68
2022/07/03 08:54:08;;;;;;;1999.90;999.90;;;26.90;1.00;;;;;;5075620;28;20193;-69
2022/07/03 08:56:36;;;;;;;1999.90;999.90;;;26.30;1.00;;;;;;5075248;28;20209;-66
2022/07/03 08:59:06;;;;;;;1999.90;999.90;;;25.60;1.00;;;;;;5075218;28;20203;-66
2022/07/03 09:01:34;;;;;;;1999.90;999.90;;;25.40;1.00;;;;;;5075446;28;20199;-65
2022/07/03 09:04:02;;;;;;;1999.90;999.90;;;25.40;99.90;;;;;;5075446;28;20199;-65
2022/07/03 09:06:33;;;;;;;1999.90;999.90;;;25.40;1.00;;;;;;5075361;28;20251;-66
2022/07/03 09:09:03;;;;;;;1999.90;999.90;;;25.60;1.00;;;;;;5075046;28;20259;-67
2022/07/03 09:11:31;;;;;;;1999.90;999.90;;;26.50;94.80;;;;;;5074988;28;20205;-66
2022/07/03 09:13:58;;;;;;;1999.90;999.90;;;26.10;99.90;;;;;;5074836;28;20230;-66
2022/07/03 09:16:25;;;;;;;1999.90;999.90;;;25.40;99.90;;;;;;5074811;28;20660;-66
2022/07/03 09:18:52;;;;;;;1999.90;999.90;;;26.10;1.00;;;;;;5074914;28;20683;-67
2022/07/03 09:21:20;;;;;;;1999.90;999.90;;;26.60;17.80;;;;;;5075089;28;20555;-65
2022/07/03 09:23:47;;;;;;;1999.90;999.90;;;27.60;1.00;;;;;;5074760;28;20609;-66
2022/07/03 09:26:17;;;;;;;1999.90;999.90;;;26.30;1.00;;;;;;5075049;28;20282;-66
2022/07/03 09:28:47;;;;;;;1999.90;999.90;;;27.10;1.00;;;;;;5074930;28;20211;-65
2022/07/03 09:31:16;;;;;;;1999.90;999.90;;;26.90;1.00;;;;;;5074304;28;20709;-67
2022/07/03 09:33:56;;;;;;;1999.90;999.90;;;26.20;1.00;;;;;;5074565;28;20552;-66
2022/07/03 09:36:38;;;;;;;1999.90;999.90;;;26.20;99.90;;;;;;5074947;28;20187;-66
2022/07/03 09:39:15;;;;;;;1999.90;999.90;;;26.00;1.00;;;;;;5074551;28;20183;-67
2022/07/03 09:41:59;;;;;;;1999.90;999.90;;;26.10;1.00;;;;;;5074494;28;20175;-67
2022/07/03 09:44:34;;;;;;;1999.90;999.90;;;26.00;99.90;;;;;;5072952;28;20673;-66
2022/07/03 09:47:12;;;;;;;1999.90;999.90;;;25.60;89.50;;;;;;5074594;28;20191;-67
2022/07/03 09:49:54;;;;;;;1999.90;999.90;;;25.20;99.90;;;;;;5074260;28;20207;-68
2022/07/03 09:52:28;;;;;;;1999.90;999.90;;;25.70;1.00;;;;;;5074178;28;20717;-67
2022/07/03 09:54:56;;;;;;;1999.90;999.90;;;25.00;69.10;;;;;;5074224;28;20182;-68
2022/07/03 09:57:30;;;;;;;1999.90;999.90;;;25.40;99.90;;;;;;5074198;28;20187;-65
2022/07/03 10:00:18;;;;;;;1999.90;999.90;;;27.00;1.00;;;;;;5074061;28;20176;-64
2022/07/03 10:02:56;;;;;;;1999.90;999.90;;;26.60;15.90;;;;;;5074038;28;20713;-63
2022/07/03 10:05:24;;;;;;;1999.90;999.90;;;27.40;99.90;;;;;;5074001;28;20239;-64
2022/07/03 10:07:53;;;;;;;1999.90;999.90;;;27.70;99.90;;;;;;5073886;28;20202;-64
2022/07/03 10:10:22;;;;;;;1999.90;999.90;;;27.60;99.90;;;;;;5074051;28;20352;-64
2022/07/03 10:12:52;;;;;;;1999.90;999.90;;;27.90;1.00;;;;;;5073925;28;20656;-64
2022/07/03 10:15:21;;;;;;;1999.90;999.90;;;28.70;99.90;;;;;;5074124;28;20187;-64
2022/07/03 10:17:49;;;;;;;1999.90;999.90;;;28.20;52.90;;;;;;5073590;28;20194;-64
2022/07/03 10:20:25;;;;;;;1999.90;999.90;;;28.10;1.00;;;;;;5073687;28;20538;-64
2022/07/03 10:22:53;;;;;;;1999.90;999.90;;;28.00;1.00;;;;;;5073608;28;20191;-64
2022/07/03 10:25:20;;;;;;;1999.90;999.90;;;27.80;1.00;;;;;;5073608;28;20190;-64
2022/07/03 10:27:48;;;;;;;1999.90;999.90;;;27.40;1.00;;;;;;5073527;28;20255;-65
2022/07/03 10:30:18;;;;;;;1999.90;999.90;;;27.70;1.00;;;;;;5073361;28;20612;-63
2022/07/03 10:32:46;;;;;;;1999.90;999.90;;;27.90;1.00;;;;;;5073788;28;20175;-63
2022/07/03 10:35:16;;;;;;;1999.90;999.90;;;27.10;1.00;;;;;;5073712;28;20195;-63
2022/07/03 10:37:57;;;;;;;1999.90;999.90;;;27.10;48.00;;;;;;5073310;28;20271;-63
2022/07/03 10:46:15;;;;;;;1999.90;999.90;;;27.30;1.00;;;;;;5073591;28;20187;-63
2022/07/03 10:49:01;;;;;;;1999.90;999.90;;;27.40;22.70;;;;;;5073335;28;20684;-63
2022/07/03 10:51:30;;;;;;;1999.90;999.90;;;27.00;99.90;;;;;;5072128;28;20210;-62
2022/07/03 10:54:17;;;;;;;1999.90;999.90;;;26.40;90.90;;;;;;5073057;28;20213;-63
2022/07/03 10:57:06;;;;;;;1999.90;999.90;;;26.30;1.00;;;;;;5073217;28;20187;-63
2022/07/03 11:00:13;;;;;;;1999.90;999.90;;;26.60;1.00;;;;;;5072868;28;20664;-61
2022/07/03 11:02:45;;;;;;;1999.90;999.90;;;28.00;1.00;;;;;;5011049;28;20213;-61
2022/07/03 11:05:37;;;;;;;1999.90;999.90;;;29.50;1.00;;;;;;5011029;28;20220;-63
2022/07/03 11:08:12;;;;;;;1999.90;999.90;;;28.00;99.90;;;;;;5010987;28;20253;-64
2022/07/03 11:10:44;;;;;;;1999.90;999.90;;;27.30;1.00;;;;;;5010871;28;20226;-65
2022/07/03 11:13:20;;;;;;;1999.90;999.90;;;26.70;99.90;;;;;;5010858;28;20239;-65
2022/07/03 11:15:52;;;;;;;1999.90;999.90;;;26.70;1.00;;;;;;5010891;28;20228;-65
2022/07/03 11:18:36;;;;;;;1999.90;999.90;;;27.00;99.90;;;;;;5010793;28;20205;-66
2022/07/03 11:21:34;;;;;;;1999.90;999.90;;;27.10;1.00;;;;;;5010741;28;20674;-64
2022/07/03 11:24:31;;;;;;;1999.90;999.90;;;26.60;99.90;;;;;;5010827;28;20204;-63
2022/07/03 11:27:18;;;;;;;1999.90;999.90;;;26.50;99.90;;;;;;5010712;28;20187;-64
2022/07/03 11:29:50;;;;;;;1999.90;999.90;;;27.80;1.00;;;;;;5010532;28;20224;-65
2022/07/03 11:32:43;;;;;;;1999.90;999.90;;;28.10;28.40;;;;;;5010628;28;20665;-65
2022/07/03 11:36:00;;;;;;;1999.90;999.90;;;26.70;1.00;;;;;;5010601;28;20192;-65
2022/07/03 11:38:29;;;;;;;1999.90;999.90;;;27.10;1.00;;;;;;5056987;28;20610;-65
2022/07/03 11:40:58;;;;;;;1999.90;999.90;;;26.00;99.90;;;;;;5072298;28;20198;-65
2022/07/03 11:43:26;;;;;;;1999.90;999.90;;;26.30;1.00;;;;;;5072590;28;20210;-65
2022/07/03 11:45:53;;;;;;;1999.90;999.90;;;26.30;1.00;;;;;;5072523;28;20205;-64
2022/07/03 11:48:22;;;;;;;1999.90;999.90;;;25.80;1.00;;;;;;5072078;28;20199;-65
2022/07/03 11:50:52;;;;;;;1999.90;999.90;;;25.10;1.00;;;;;;5072042;28;20222;-66
2022/07/03 11:53:27;;;;;;;1999.90;999.90;;;25.30;1.00;;;;;;5072462;28;20256;-68
2022/07/03 11:55:56;;;;;;;1999.90;999.90;;;26.90;1.00;;;;;;5072100;28;20543;-68
2022/07/03 11:58:24;;;;;;;1999.90;999.90;;;27.10;1.00;;;;;;5072466;28;20255;-66
2022/07/03 12:00:52;;;;;;;1999.90;999.90;;;27.60;7.80;;;;;;5072339;28;20205;-65
2022/07/03 12:03:25;;;;;;;1999.90;999.90;;;27.10;99.90;;;;;;5072097;28;20675;-64
2022/07/03 12:05:58;;;;;;;1999.90;999.90;;;26.70;99.90;;;;;;5072473;28;20202;-64
2022/07/03 12:08:27;;;;;;;1999.90;999.90;;;26.70;99.90;;;;;;5072374;28;20182;-66
2022/07/03 12:10:59;;;;;;;1999.90;999.90;;;26.50;99.90;;;;;;5072242;28;20215;-66
2022/07/03 12:13:27;;;;;;;1999.90;999.90;;;27.40;99.90;;;;;;5072106;28;20226;-67
2022/07/03 12:15:54;;;;;;;1999.90;999.90;;;27.30;99.90;;;;;;5072200;28;20205;-65
2022/07/03 12:18:22;;;;;;;1999.90;999.90;;;27.30;99.90;;;;;;5072151;28;20194;-66
2022/07/03 12:20:49;;;;;;;1999.90;999.90;;;28.10;99.90;;;;;;5072109;28;20187;-65
2022/07/03 12:23:17;;;;;;;1999.90;999.90;;;27.00;99.90;;;;;;5072229;28;20199;-65
2022/07/03 12:25:44;;;;;;;1999.90;999.90;;;26.30;99.90;;;;;;5072147;28;20195;-65
2022/07/03 12:28:13;;;;;;;1999.90;999.90;;;26.80;99.90;;;;;;5071934;28;20251;-66
2022/07/03 12:30:40;;;;;;;1999.90;999.90;;;26.90;1.00;;;;;;5071966;28;20260;-66